Clay, Texas
Current Conditions -  °F | °C
As of 7:15 PM on Thursday 18 Dec 2014 (Local Time) from K11R Reporting Station
Overcast Overcast  
Wind Chill: 62°   Ceiling: 1300
Heat Index: 62°   Visibility: 10mi
Dew Point: 57°   Wind: 6mph
Humidity: 85%   Direction: 50°NE
Pressure: 30.09"   Gusts: NA
Location:  30.39°N, 96.34°W
Report Text: K11R 190115Z AUTO 05005KT 10SM OVC013 17/14 A3009 RMK AO2 T01660140
Loading
Personal Weather Stations






























Interactive Weather Map New forecast layout! Learn more

10-Day Weather Forecast

Advertisements
Track Severe Weather on mobile